Flight Track Log - Related Links

Times and Time Zones

All times are in EDT time to prevent confusion due to time zone crossing. See the UAL495 flight status page for this flight to view local times or setup timezone preferences in your user account.

Time Position Orientation Groundspeed Altitude Reporting Facility
EDT Latitude Longitude Course Direction KTS MPH feet Rate Location/Type
Sat 12:32:04 PM 39.9000 -104.7000 90° East 194 223 6,800  Level Denver TRACON
Sat 12:32:30 PM 39.9281 -104.6939 North 201 231 7,400 2,045 Climbing Denver Center
Sat 12:33:32 PM 39.9847 -104.6431 34° Northeast 263 303 9,800 1,773 Climbing Denver Center
Sat 12:33:58 PM 39.9833 -104.6000 92° East 305 351 10,000 97 Climbing Denver TRACON
Sat 12:34:00 PM 39.8667 -104.1956 90° East  Level FlightAware Approximate
Sat 12:35:00 PM 39.8667 -104.0382 90° East  Level FlightAware Approximate
Sat 12:35:36 PM 39.9553 -104.4167 101° East 305 351 10,000  Level Denver Center
Sat 12:36:00 PM 39.8667 -103.8808 90° East  Level FlightAware Approximate
Sat 12:36:38 PM 39.9353 -104.3044 103° East 320 368 10,800  Level Denver Center
Sat 12:37:00 PM 39.8833 -103.7268 90° East  Level FlightAware Approximate
Sat 12:37:40 PM 39.9119 -104.1936 105° East 369 425 12,100  Level Denver Center
Sat 12:38:42 PM 39.8692 -104.0400 110° East 354 407 17,300 3,387 Climbing Denver Center
Sat 12:39:44 PM 39.8583 -103.9214 97° East 342 394 19,100 1,355 Climbing Denver Center
Sat 12:40:46 PM 39.8689 -103.7739 85° East 386 444 20,100 1,452 Climbing Denver Center
Sat 12:41:48 PM 39.8781 -103.6264 85° East 393 452 22,100 1,548 Climbing Denver Center
Sat 12:42:50 PM 39.8897 -103.4711 84° East 423 487 23,300 1,306 Climbing Denver Center
Sat 12:43:52 PM 39.9019 -103.3100 84° East 440 506 24,800 1,403 Climbing Denver Center
Sat 12:44:54 PM 39.9136 -103.1442 85° East 452 520 26,200 1,258 Climbing Denver Center
Sat 12:45:56 PM 39.9233 -102.9756 86° East 462 532 27,400 1,355 Climbing Denver Center
Sat 12:46:58 PM 39.9356 -102.8047 85° East 468 539 29,000 871 Climbing Denver Center
Sat 12:48:00 PM 39.9436 -102.6583 86° East 467 537 29,200 968 Climbing Denver Center
Sat 12:49:02 PM 39.9561 -102.4428 86° East 469 540 31,000 1,548 Climbing Denver Center
Sat 12:50:04 PM 39.9667 -102.2869 85° East 453 521 32,400 1,403 Climbing Denver Center
Sat 12:51:06 PM 39.9767 -102.1053 86° East 451 519 33,900 1,210 Climbing Denver Center
Sat 12:52:08 PM 39.9856 -101.9533 86° East 441 507 34,900 528 Climbing Denver Center
Sat 12:53:11 PM 39.9964 -101.7744 85° East 445 512 35,000 48 Climbing Denver Center
Sat 12:54:13 PM 40.0047 -101.6203 86° East 446 513 35,000  Level Denver Center
Sat 12:55:27 PM 40.0144 -101.4378 86° East 453 521 35,000  Level Denver Center
Sat 12:56:29 PM 40.0247 -101.2300 86° East 452 520 35,000  Level Denver Center
Sat 12:57:43 PM 40.0325 -101.0481 87° East 453 521 35,000  Level Denver Center
Sat 12:58:45 PM 40.0422 -100.8667 86° East 451 519 35,000  Level Denver Center
Sat 12:59:48 PM 40.0497 -100.7119 86° East 449 517 35,000  Level Denver Center
Sat 01:00:50 PM 40.0581 -100.5317 86° East 447 514 35,000  Level Denver Center
Sat 01:01:52 PM 40.0647 -100.3769 87° East 448 516 35,000  Level Denver Center
Sat 01:02:54 PM 40.0708 -100.1969 87° East 447 514 35,000  Level Denver Center
Sat 01:03:56 PM 40.0767 -100.0411 87° East 450 518 35,000  Level Denver Center
Sat 01:04:58 PM 40.0836 -99.8639 87° East 448 516 35,000  Level Denver Center
Sat 01:06:00 PM 40.0908 -99.7017 87° East 449 517 35,000  Level Denver Center
Sat 01:07:02 PM 40.0961 -99.5378 88° East 453 521 35,000  Level Denver Center
Sat 01:08:04 PM 40.1025 -99.3775 87° East 446 513 35,000  Level Denver Center
Sat 01:09:06 PM 40.1092 -99.1817 87° East 450 518 35,000  Level Denver Center
Sat 01:10:08 PM 40.1147 -99.0189 87° East 451 519 35,000  Level Denver Center
Sat 01:11:10 PM 40.1186 -98.8556 88° East 452 520 35,000  Level Denver Center
Sat 01:11:44 PM 40.1225 -98.7594 87° East 451 519 35,000  Level Minneapolis Center
Sat 01:12:46 PM 40.1272 -98.5944 88° East 453 521 35,000  Level Minneapolis Center
Sat 01:13:48 PM 40.1311 -98.4300 88° East 454 522 35,000  Level Minneapolis Center
Sat 01:14:50 PM 40.1356 -98.2661 88° East 454 522 35,000  Level Minneapolis Center
Sat 01:15:52 PM 40.1386 -98.1025 89° East 453 521 35,000  Level Minneapolis Center
Sat 01:16:54 PM 40.1428 -97.9058 88° East 453 521 35,000  Level Minneapolis Center
Sat 01:17:55 PM 40.1458 -97.7428 89° East 451 519 35,000  Level Minneapolis Center
Sat 01:18:57 PM 40.1503 -97.5783 88° East 452 520 35,000  Level Minneapolis Center
Sat 01:19:59 PM 40.1531 -97.4133 89° East 455 524 35,000  Level Minneapolis Center
Sat 01:21:01 PM 40.1561 -97.2475 89° East 455 524 35,000  Level Minneapolis Center
Sat 01:22:03 PM 40.1583 -97.0836 89° East 454 522 35,000  Level Minneapolis Center
Sat 01:23:05 PM 40.1611 -96.9181 89° East 455 524 35,000  Level Minneapolis Center
Sat 01:24:06 PM 40.1622 -96.7175 90° East 457 526 35,000  Level Minneapolis Center
Sat 01:25:08 PM 40.1642 -96.5514 89° East 458 527 35,000  Level Minneapolis Center
Sat 01:26:10 PM 40.1658 -96.3850 89° East 459 528 35,000  Level Minneapolis Center
Sat 01:27:12 PM 40.1667 -96.2172 90° East 460 529 35,000  Level Minneapolis Center
Sat 01:28:14 PM 40.1683 -96.0525 89° East 460 529 35,000  Level Minneapolis Center
Sat 01:29:16 PM 40.1689 -95.8850 90° East 461 531 35,000  Level Minneapolis Center
Sat 01:30:17 PM 40.1697 -95.7186 90° East 461 531 35,000  Level Minneapolis Center
Sat 01:32:11 PM 40.1697 -95.3919 90° East 462 532 35,000  Level Kansas City Center
Sat 01:33:13 PM 40.1689 -95.2017 90° East 466 536 35,000  Level Kansas City Center
Sat 01:34:25 PM 40.1697 -95.0136 90° East 465 535 35,000  Level Minneapolis Center
Sat 01:35:26 PM 40.1692 -94.8453 90° East 465 535 35,000  Level Minneapolis Center
Sat 01:36:28 PM 40.1689 -94.6761 90° East 466 536 35,000  Level Minneapolis Center
Sat 01:37:30 PM 40.1667 -94.4856 91° East 468 539 35,000  Level Minneapolis Center
Sat 01:38:22 PM 40.1642 -94.3339 91° East 473 544 35,000  Level Kansas City Center
Sat 01:39:24 PM 40.1625 -94.1683 91° East 474 545 35,000  Level Kansas City Center
Sat 01:40:26 PM 40.1561 -93.9700 92° East 483 556 35,000  Level Kansas City Center
Sat 01:41:28 PM 40.1547 -93.7978 91° East 481 554 35,000  Level Kansas City Center
Sat 01:42:29 PM 40.1525 -93.6275 91° East 475 547 35,000  Level Kansas City Center
Sat 01:43:31 PM 40.1497 -93.4556 91° East 477 549 35,000  Level Kansas City Center
Sat 01:44:33 PM 40.1489 -93.2836 90° East 478 550 35,000  Level Kansas City Center
Sat 01:45:35 PM 40.1431 -93.0772 92° East 477 549 35,000  Level Kansas City Center
Sat 01:46:37 PM 40.1400 -92.9200 91° East 477 549 35,000  Level Kansas City Center
Sat 01:47:39 PM 40.1364 -92.7219 91° East 486 559 35,000  Level Kansas City Center
Sat 01:48:41 PM 40.1347 -92.5536 91° East 487 560 35,000  Level Kansas City Center
Sat 01:49:43 PM 40.1475 -92.3567 85° East 485 558 35,000  Level Kansas City Center
Sat 01:50:44 PM 40.1553 -92.1769 87° East 495 570 35,000  Level Kansas City Center
Sat 01:51:46 PM 40.1653 -91.9992 86° East 496 571 35,000  Level Kansas City Center
Sat 01:52:48 PM 40.1731 -91.8203 87° East 498 573 35,000  Level Kansas City Center
Sat 01:53:50 PM 40.1808 -91.6414 87° East 498 573 35,000  Level Kansas City Center
Sat 01:54:52 PM 40.1900 -91.4250 87° East 500 575 35,000  Level Kansas City Center
Sat 01:55:54 PM 40.1994 -91.2442 86° East 502 578 35,000  Level Kansas City Center
Sat 01:56:56 PM 40.2058 -91.0631 87° East 503 579 35,000  Level Kansas City Center
Sat 01:57:58 PM 40.2131 -90.8836 87° East 504 580 35,000  Level Kansas City Center
Sat 01:59:06 PM 40.2222 -90.6631 87° East 507 583 35,000  Level Chicago Center
Sat 02:00:08 PM 40.2281 -90.4775 88° East 510 587 35,000  Level Chicago Center
Sat 02:01:10 PM 40.2339 -90.2922 88° East 511 588 35,000  Level Chicago Center
Sat 02:02:11 PM 40.2397 -90.1086 88° East 510 587 35,000  Level Chicago Center
Sat 02:03:13 PM 40.2461 -89.8875 88° East 512 589 35,000  Level Chicago Center
Sat 02:04:14 PM 40.2519 -89.7039 88° East 510 587 35,000  Level Chicago Center
Sat 02:05:16 PM 40.2561 -89.5192 88° East 513 590 35,000  Level Chicago Center
Sat 02:06:17 PM 40.2619 -89.3353 88° East 511 588 35,000  Level Chicago Center
Sat 02:07:19 PM 40.2669 -89.1481 88° East 516 594 35,000  Level Chicago Center
Sat 02:08:21 PM 40.2714 -88.9622 88° East 515 593 35,000  Level Chicago Center
Sat 02:09:22 PM 40.2764 -88.7369 88° East 518 596 35,000  Level Chicago Center
Sat 02:10:24 PM 40.2789 -88.5478 89° East 520 598 35,000  Level Chicago Center
Sat 02:11:25 PM 40.2831 -88.3747 88° East 519 597 35,000  Level Chicago Center
Sat 02:12:27 PM 40.2856 -88.1872 89° East 520 598 35,000  Level Chicago Center
Sat 02:13:29 PM 40.2892 -87.9614 89° East 519 597 35,000  Level Chicago Center
Sat 02:14:30 PM 40.2914 -87.7728 89° East 523 602 35,000  Level Chicago Center
Sat 02:15:32 PM 40.2950 -87.5842 89° East 524 603 35,000  Level Chicago Center
Sat 02:16:34 PM 40.2936 -87.3894 90° East 523 602 35,000  Level Chicago Center
Sat 02:17:36 PM 40.2914 -87.1972 91° East 524 603 35,000  Level Chicago Center
Sat 02:18:37 PM 40.2892 -87.0047 91° East 525 604 35,000  Level Chicago Center
Sat 02:19:39 PM 40.2861 -86.8114 91° East 527 606 35,000  Level Chicago Center
Sat 02:20:41 PM 40.2842 -86.6175 91° East 526 605 35,000  Level Chicago Center
Sat 02:21:42 PM 40.2800 -86.3925 91° East 525 604 35,000  Level Chicago Center
Sat 02:22:44 PM 40.2778 -86.1978 91° East 529 609 35,000  Level Chicago Center
Sat 02:23:46 PM 40.2739 -86.0014 91° East 534 615 35,000  Level Chicago Center
Sat 02:24:48 PM 40.2675 -85.8031 92° East 539 620 35,000  Level Chicago Center
Sat 02:25:50 PM 40.2639 -85.6061 91° East 539 620 35,000  Level Chicago Center
Sat 02:26:51 PM 40.2494 -85.4094 95° East 554 638 35,000  Level Chicago Center
Sat 02:27:53 PM 40.2106 -85.2247 105° East 534 615 35,000  Level Chicago Center
Sat 02:28:55 PM 40.1711 -85.0389 105° East 527 606 35,000 -49 Level Indianapolis Center
Sat 02:29:56 PM 40.1308 -84.8458 105° East 527 606 34,900  Descending Indianapolis Center
Sat 02:30:58 PM 40.1022 -84.6544 101° East 534 615 35,000  Climbing Indianapolis Center
Sat 02:31:59 PM 40.0992 -84.4553 91° East 542 624 34,900  Descending Indianapolis Center
Sat 02:33:01 PM 40.0983 -84.2556 90° East 545 627 35,000 49 Climbing Indianapolis Center
Sat 02:34:02 PM 40.0953 -84.0547 91° East 546 628 35,000  Level Indianapolis Center
Sat 02:35:04 PM 40.0936 -83.8517 91° East 551 634 35,000  Level Indianapolis Center
Sat 02:36:05 PM 40.0900 -83.6486 91° East 549 632 35,000  Level Indianapolis Center
Sat 02:37:07 PM 40.0875 -83.4444 91° East 550 633 35,000  Level Indianapolis Center
Sat 02:38:08 PM 40.0850 -83.2417 91° East 547 629 35,000  Level Indianapolis Center
Sat 02:39:10 PM 40.1053 -83.0422 82° East 545 627 35,000  Level Indianapolis Center
Sat 02:40:11 PM 40.1281 -82.8097 83° East 547 629 35,000  Level Indianapolis Center
Sat 02:41:13 PM 40.1311 -82.6119 89° East 539 620 35,000 -49 Level Indianapolis Center
Sat 02:42:14 PM 40.1194 -82.4139 94° East 542 624 34,900 -49 Descending Indianapolis Center
Sat 02:43:16 PM 40.1089 -82.2150 94° East 543 625 34,900  Level Indianapolis Center
Sat 02:44:17 PM 40.0967 -82.0153 95° East 546 628 34,900 49 Level Indianapolis Center
Sat 02:45:19 PM 40.0853 -81.8164 94° East 546 628 35,000 48 Climbing Indianapolis Center
Sat 02:46:21 PM 40.0711 -81.6158 95° East 547 629 35,000  Level Indianapolis Center
Sat 02:47:22 PM 40.0589 -81.4150 94° East 551 634 35,000  Level Indianapolis Center
Sat 02:48:24 PM 40.0458 -81.2136 95° East 554 638 35,000  Level Indianapolis Center
Sat 02:48:57 PM 40.0408 -81.1064 93° East 544 626 35,000 -65 Level Cleveland Center
Sat 02:49:57 PM 40.0250 -80.8922 95° East 537 618 34,900 -1,350 Descending Cleveland Center
Sat 02:50:57 PM 39.9711 -80.7131 111° Southeast 527 606 32,300 -1,450 Descending Cleveland Center
Sat 02:51:57 PM 39.8919 -80.5453 122° Southeast 522 601 32,000 -350 Descending Cleveland Center
Sat 02:52:57 PM 39.8106 -80.3803 123° Southeast 533 613 31,600 -1,615 Descending Cleveland Center
Sat 02:54:33 PM 39.6786 -80.1122 123° Southeast 540 621 27,800 -2,079 Descending Indianapolis Center
Sat 02:55:04 PM 39.6561 -80.0553 117° Southeast 531 611 27,200 -522 Descending Washington Center
Sat 02:56:05 PM 39.5842 -79.9081 122° Southeast 508 585 27,000 -101 Descending Washington Center
Sat 02:57:03 PM 39.5381 -79.7411 110° East 494 568 27,000  Level Washington Center
Sat 02:58:03 PM 39.5064 -79.5697 103° East 478 550 27,000 -198 Level Washington Center
Sat 02:59:04 PM 39.4783 -79.4069 103° East 483 556 26,600 -1,289 Descending Washington Center
Sat 03:00:04 PM 39.4439 -79.2358 105° East 461 531 24,400 -2,186 Descending Washington Center
Sat 03:01:02 PM 39.4211 -79.0894 101° East 438 504 22,300 -2,150 Descending Washington Center
Sat 03:02:04 PM 39.3919 -78.9431 104° East 413 475 20,100 -2,195 Descending Washington Center
Sat 03:03:05 PM 39.3667 -78.8022 103° East 407 468 17,800 -2,050 Descending Washington Center
Sat 03:04:04 PM 39.3431 -78.6697 103° East 395 455 16,000 -1,650 Descending Washington Center
Sat 03:05:05 PM 39.3211 -78.5481 103° East 371 427 14,500 -1,613 Descending Washington Center
Sat 03:06:03 PM 39.2989 -78.4292 104° East 350 403 12,800 -1,576 Descending Washington Center
Sat 03:07:03 PM 39.2639 -78.3206 113° Southeast 333 383 11,400 -992 Descending Washington Center
Sat 03:08:04 PM 39.2158 -78.2331 125° Southeast 315 362 10,800 -893 Descending Washington Center
Sat 03:09:04 PM 39.1719 -78.1483 124° Southeast 295 339 9,600 -1,240 Descending Washington Center
Sat 03:10:05 PM 39.1297 -78.0694 125° Southeast 282 325 8,300 -1,339 Descending Washington Center
Sat 03:11:05 PM 39.0875 -77.9878 124° Southeast 276 318 6,900 -1,169 Descending Washington Center
Sat 03:12:03 PM 39.0453 -77.9089 125° Southeast 271 312 6,000 -458 Descending Washington Center
Sat 03:13:03 PM 39.0072 -77.8381 125° Southeast 271 312 6,000  Level Washington Center
Sat 03:14:04 PM 38.9650 -77.7514 122° Southeast 271 312 6,000  Level Washington Center
Sat 03:16:08 PM 39.0167 -77.5833 68° East 284 327 6,000  Level Potomac TRACON
Sat 03:17:02 PM 39.0833 -77.5667 11° North 274 315 6,000  Level Potomac TRACON
Sat 03:18:03 PM 39.1333 -77.5667 360° North 211 243 6,000 -496 Level Potomac TRACON
Sat 03:19:03 PM 39.1833 -77.5667 360° North 189 217 5,000 -500 Descending Potomac TRACON
Sat 03:20:03 PM 39.2167 -77.5167 49° Northeast 185 213 5,000 -545 Level Potomac TRACON
Sat 03:21:04 PM 39.1833 -77.4667 131° Southeast 181 208 3,900 -793 Descending Potomac TRACON
Sat 03:22:04 PM 39.1333 -77.4500 166° South 180 207 3,400 -574 Descending Potomac TRACON
Sat 03:22:59 PM 39.1000 -77.4500 180° South 178 205 2,800 -655 Descending Potomac TRACON

Login

Don't have an account? Register now (free) for customized features, flight alerts, and more!